createdAt,value
2019-02-05T00:00:23.081Z,3.6
2019-02-05T00:01:12.869Z,3.6
2019-02-05T00:02:03.486Z,3.6
2019-02-05T00:02:52.976Z,3.6
2019-02-05T00:03:43.327Z,3.6
2019-02-05T00:04:33.114Z,3.6
2019-02-05T00:05:23.439Z,3.6
2019-02-05T00:06:13.941Z,3.6
2019-02-05T00:07:03.547Z,3.6
2019-02-05T00:07:53.624Z,3.6
2019-02-05T00:08:43.949Z,3.6
2019-02-05T00:09:33.734Z,3.6
2019-02-05T00:10:24.066Z,3.6
2019-02-05T00:11:13.836Z,3.6
2019-02-05T00:12:04.188Z,3.6
2019-02-05T00:12:53.976Z,3.6
2019-02-05T00:13:44.030Z,3.6
2019-02-05T00:14:34.345Z,3.6
2019-02-05T00:15:25.076Z,3.6
2019-02-05T00:16:14.473Z,3.6
2019-02-05T00:17:04.531Z,3.6
2019-02-05T00:17:54.319Z,3.6
2019-02-05T00:18:44.693Z,3.6
2019-02-05T00:19:34.431Z,3.6
2019-02-05T00:20:24.298Z,3.6
2019-02-05T00:21:14.825Z,3.6
2019-02-05T00:22:04.603Z,3.6
2019-02-05T00:22:54.658Z,3.6
2019-02-05T00:23:44.773Z,3.6
2019-02-05T00:24:35.530Z,3.6
2019-02-05T00:25:25.127Z,3.6
2019-02-05T00:26:15.180Z,3.6
2019-02-05T00:27:05.242Z,3.6
2019-02-05T00:27:55.350Z,3.6
2019-02-05T00:28:45.370Z,3.6
2019-02-05T00:29:35.245Z,3.6
2019-02-05T00:30:25.491Z,3.6
2019-02-05T00:31:15.630Z,3.6
2019-02-05T00:32:05.599Z,3.6
2019-02-05T00:32:55.378Z,3.6
2019-02-05T00:33:46.047Z,3.6
2019-02-05T00:34:35.217Z,3.6
2019-02-05T00:35:25.837Z,3.6
2019-02-05T00:36:15.612Z,3.6
2019-02-05T00:37:05.968Z,3.6
2019-02-05T00:37:55.997Z,3.6
2019-02-05T00:38:45.782Z,3.6
2019-02-05T00:39:36.117Z,3.6
2019-02-05T00:40:26.175Z,3.6
2019-02-05T00:41:16.239Z,3.6
2019-02-05T00:42:06.282Z,3.6
2019-02-05T00:42:57.151Z,3.6
2019-02-05T00:43:46.401Z,3.6
2019-02-05T00:44:36.572Z,3.6
2019-02-05T00:45:26.259Z,3.6
2019-02-05T00:46:16.596Z,3.6
2019-02-05T00:47:06.173Z,3.6
2019-02-05T00:47:56.701Z,3.6
2019-02-05T00:48:46.759Z,3.6
2019-02-05T00:49:36.826Z,3.6
2019-02-05T00:50:26.881Z,3.6
2019-02-05T00:51:16.948Z,3.6
2019-02-05T00:52:07.399Z,3.6
2019-02-05T00:52:56.783Z,3.6
2019-02-05T00:53:47.113Z,3.6
2019-02-05T00:54:36.613Z,3.6
2019-02-05T00:55:26.412Z,3.6
2019-02-05T00:56:19.201Z,3.6
2019-02-05T00:57:07.338Z,3.6
2019-02-05T00:57:57.143Z,3.6
2019-02-05T00:58:47.464Z,3.6
2019-02-05T00:59:37.293Z,3.6
2019-02-05T01:00:27.629Z,3.6
2019-02-05T01:01:18.263Z,3.6
2019-02-05T01:02:07.708Z,3.6
2019-02-05T01:02:57.795Z,3.6
2019-02-05T01:03:47.371Z,3.6
2019-02-05T01:04:37.881Z,3.6
2019-02-05T01:05:27.945Z,3.6
2019-02-05T01:06:17.990Z,3.6
2019-02-05T01:07:08.055Z,3.6
2019-02-05T01:07:58.120Z,3.6
2019-02-05T01:08:47.902Z,3.6
2019-02-05T01:09:37.957Z,3.6
2019-02-05T01:10:29.157Z,3.6
2019-02-05T01:11:18.352Z,3.6
2019-02-05T01:12:08.130Z,3.6
2019-02-05T01:12:57.986Z,3.6
2019-02-05T01:13:47.696Z,3.6
2019-02-05T01:14:38.306Z,3.6
2019-02-05T01:15:27.904Z,3.6
2019-02-05T01:16:18.719Z,3.6
2019-02-05T01:17:08.497Z,3.6
2019-02-05T01:17:58.816Z,3.6
2019-02-05T01:18:48.876Z,3.6
2019-02-05T01:19:39.175Z,3.6
2019-02-05T01:20:28.727Z,3.6
2019-02-05T01:21:19.053Z,3.6
2019-02-05T01:22:09.107Z,3.6
2019-02-05T01:22:58.611Z,3.6
2019-02-05T01:23:48.954Z,3.6
2019-02-05T01:24:39.286Z,3.6
2019-02-05T01:25:29.351Z,3.6
2019-02-05T01:26:32.354Z,3.6
2019-02-05T01:27:08.911Z,3.6
2019-02-05T01:27:59.251Z,3.6
2019-02-05T01:28:50.339Z,3.6
2019-02-05T01:29:39.657Z,3.6
2019-02-05T01:30:29.438Z,3.6
2019-02-05T01:31:19.755Z,3.6
2019-02-05T01:32:10.018Z,3.6
2019-02-05T01:32:59.723Z,3.6
2019-02-05T01:33:49.946Z,3.6
2019-02-05T01:34:39.716Z,3.6
2019-02-05T01:35:30.060Z,3.6
2019-02-05T01:36:20.111Z,3.6
2019-02-05T01:37:10.161Z,3.6
2019-02-05T01:38:00.736Z,3.6
2019-02-05T01:38:50.003Z,3.6
2019-02-05T01:39:39.858Z,3.6
2019-02-05T01:40:30.408Z,3.6
2019-02-05T01:41:20.802Z,3.6
2019-02-05T01:42:10.254Z,3.6
2019-02-05T01:43:00.585Z,3.6
2019-02-05T01:43:50.150Z,3.6
2019-02-05T01:44:40.807Z,3.6
2019-02-05T01:45:30.487Z,3.6
2019-02-05T01:46:20.820Z,3.6
2019-02-05T01:47:11.063Z,3.6
2019-02-05T01:48:00.172Z,3.6
2019-02-05T01:48:50.722Z,3.6
2019-02-05T01:49:41.077Z,3.6
2019-02-05T01:50:30.568Z,3.6
2019-02-05T01:51:20.882Z,3.6
2019-02-05T01:52:10.937Z,3.6
2019-02-05T01:53:00.799Z,3.6
2019-02-05T01:53:51.335Z,3.6
2019-02-05T01:54:41.402Z,3.6
2019-02-05T01:55:31.464Z,3.6
2019-02-05T01:56:21.297Z,3.6
2019-02-05T01:57:11.579Z,3.6
2019-02-05T01:58:01.078Z,3.6
2019-02-05T01:58:51.430Z,3.6
2019-02-05T01:59:41.741Z,3.6
2019-02-05T02:00:32.152Z,3.6
2019-02-05T02:01:21.604Z,3.6
2019-02-05T02:02:11.646Z,3.6
2019-02-05T02:03:01.980Z,3.6
2019-02-05T02:03:52.052Z,3.6
2019-02-05T02:04:42.106Z,3.6
2019-02-05T02:05:33.077Z,3.6
2019-02-05T02:06:21.736Z,3.6
2019-02-05T02:07:12.281Z,3.6
2019-02-05T02:08:02.341Z,3.6
2019-02-05T02:08:52.387Z,3.6
2019-02-05T02:09:41.718Z,3.6
2019-02-05T02:10:32.028Z,3.6
2019-02-05T02:11:22.096Z,3.6
2019-02-05T02:12:12.629Z,3.6
2019-02-05T02:13:01.926Z,3.6
2019-02-05T02:13:52.742Z,3.6
2019-02-05T02:14:43.749Z,3.7
2019-02-05T02:15:32.578Z,3.6
2019-02-05T02:16:22.931Z,3.6
2019-02-05T02:17:12.703Z,3.6
2019-02-05T02:18:02.760Z,3.7
2019-02-05T02:18:52.078Z,3.6
2019-02-05T02:19:42.883Z,3.7
2019-02-05T02:20:32.668Z,3.7
2019-02-05T02:21:23.262Z,3.7
2019-02-05T02:22:13.332Z,3.7
2019-02-05T02:23:03.382Z,3.7
2019-02-05T02:23:54.317Z,3.7
2019-02-05T02:24:43.348Z,3.7
2019-02-05T02:25:33.562Z,3.7
2019-02-05T02:26:23.380Z,3.7
2019-02-05T02:27:13.680Z,3.7
2019-02-05T02:28:03.753Z,3.7
2019-02-05T02:28:53.805Z,3.7
2019-02-05T02:29:44.005Z,3.7
2019-02-05T02:30:33.957Z,3.7
2019-02-05T02:31:23.499Z,3.7
2019-02-05T02:32:13.767Z,3.7
2019-02-05T02:33:04.498Z,3.7
2019-02-05T02:33:53.887Z,3.7
2019-02-05T02:34:43.457Z,3.7
2019-02-05T02:35:34.498Z,3.7
2019-02-05T02:36:23.855Z,3.7
2019-02-05T02:37:14.484Z,3.7
2019-02-05T02:38:04.518Z,3.7
2019-02-05T02:38:54.757Z,3.8
2019-02-05T02:39:44.586Z,3.7
2019-02-05T02:40:34.374Z,3.8
2019-02-05T02:41:24.203Z,3.7
2019-02-05T02:42:14.382Z,3.8
2019-02-05T02:43:03.786Z,3.8
2019-02-05T02:43:54.868Z,3.8
2019-02-05T02:44:44.160Z,3.8
2019-02-05T02:45:34.716Z,3.8
2019-02-05T02:46:24.564Z,3.8
2019-02-05T02:47:14.343Z,3.7
2019-02-05T02:48:05.226Z,3.8
2019-02-05T02:48:55.213Z,3.8
2019-02-05T02:49:45.021Z,3.7
2019-02-05T02:50:35.087Z,3.7
2019-02-05T02:51:25.071Z,3.7
2019-02-05T02:52:15.526Z,3.8
2019-02-05T02:53:05.268Z,3.7
2019-02-05T02:53:55.398Z,3.8
2019-02-05T02:54:45.377Z,3.7
2019-02-05T02:55:35.825Z,3.8
2019-02-05T02:56:24.993Z,3.7
2019-02-05T02:57:16.378Z,3.7
2019-02-05T02:58:05.283Z,3.7
2019-02-05T02:58:55.463Z,3.8
2019-02-05T02:59:45.239Z,3.7
2019-02-05T03:00:35.722Z,3.7
2019-02-05T03:01:25.614Z,3.7
2019-02-05T03:02:15.688Z,3.8
2019-02-05T03:03:06.221Z,3.7
2019-02-05T03:03:55.907Z,3.7
2019-02-05T03:04:45.848Z,3.7
2019-02-05T03:08:17.502Z,3.7
2019-02-05T03:09:07.526Z,3.7
2019-02-05T03:09:58.489Z,3.7
2019-02-05T03:10:48.456Z,3.7
2019-02-05T03:11:38.017Z,3.7
2019-02-05T03:12:28.087Z,3.7
2019-02-05T03:13:18.620Z,3.7
2019-02-05T03:14:08.169Z,3.7
2019-02-05T03:14:58.265Z,3.7
2019-02-05T03:15:48.803Z,3.7
2019-02-05T03:16:38.882Z,3.7
2019-02-05T03:17:28.666Z,3.7
2019-02-05T03:18:18.210Z,3.7
2019-02-05T03:19:09.044Z,3.7
2019-02-05T03:19:58.599Z,3.7
2019-02-05T03:20:48.650Z,3.7
2019-02-05T03:21:38.859Z,3.6
2019-02-05T03:22:28.789Z,3.6
2019-02-05T03:23:18.557Z,3.6
2019-02-05T03:24:08.902Z,3.6
2019-02-05T03:24:58.948Z,3.6
2019-02-05T03:25:48.718Z,3.6
2019-02-05T03:26:39.204Z,3.6
2019-02-05T03:27:29.303Z,3.6
2019-02-05T03:28:19.195Z,3.6
2019-02-05T03:29:09.251Z,3.6
2019-02-05T03:29:59.298Z,3.6
2019-02-05T03:30:53.483Z,3.6
2019-02-05T03:31:39.470Z,3.6
2019-02-05T03:32:29.495Z,3.6
2019-02-05T03:33:19.791Z,3.6
2019-02-05T03:34:09.581Z,3.6
2019-02-05T03:35:00.231Z,3.6
2019-02-05T03:35:49.712Z,3.6
2019-02-05T03:36:41.087Z,3.6
2019-02-05T03:37:29.806Z,3.6
2019-02-05T03:38:19.875Z,3.6
2019-02-05T03:39:09.930Z,3.6
2019-02-05T03:39:59.996Z,3.6
2019-02-05T03:40:50.166Z,3.6
2019-02-05T03:41:40.117Z,3.6
2019-02-05T03:42:30.620Z,3.6
2019-02-05T03:43:19.947Z,3.6
2019-02-05T03:44:10.295Z,3.6
2019-02-05T03:45:00.103Z,3.6
2019-02-05T03:45:50.397Z,3.6
2019-02-05T03:46:40.187Z,3.6
2019-02-05T03:47:30.235Z,3.6
2019-02-05T03:48:20.573Z,3.6
2019-02-05T03:49:10.641Z,3.6
2019-02-05T03:50:00.823Z,3.6
2019-02-05T03:50:50.757Z,3.6
2019-02-05T03:51:41.171Z,3.6
2019-02-05T03:52:30.595Z,3.6
2019-02-05T03:53:20.914Z,3.6
2019-02-05T03:54:11.000Z,3.6
2019-02-05T03:55:00.964Z,3.5
2019-02-05T03:55:51.107Z,3.6
2019-02-05T03:56:41.152Z,3.5
2019-02-05T03:59:31.894Z,3.5
2019-02-05T03:59:42.829Z,3.5
2019-02-05T04:00:33.424Z,3.5
2019-02-05T04:01:23.230Z,3.5
2019-02-05T04:02:13.277Z,3.5
2019-02-05T04:03:03.345Z,3.5
2019-02-05T04:03:53.385Z,3.5
2019-02-05T04:04:43.447Z,3.5
2019-02-05T04:05:33.953Z,3.5
2019-02-05T04:06:23.585Z,3.5
2019-02-05T04:07:13.608Z,3.5
2019-02-05T04:08:03.692Z,3.4
2019-02-05T04:08:53.482Z,3.4
2019-02-05T04:09:43.782Z,3.4
2019-02-05T04:10:33.841Z,3.4
2019-02-05T04:11:23.676Z,3.4
2019-02-05T04:12:13.732Z,3.4
2019-02-05T04:13:04.031Z,3.4
2019-02-05T04:13:54.101Z,3.4
2019-02-05T04:14:44.365Z,3.4
2019-02-05T04:15:34.194Z,3.4
2019-02-05T04:16:23.997Z,3.4
2019-02-05T04:17:14.325Z,3.4
2019-02-05T04:18:04.371Z,3.4
2019-02-05T04:18:54.172Z,3.4
2019-02-05T04:19:44.482Z,3.4
2019-02-05T04:20:34.559Z,3.4
2019-02-05T04:21:24.601Z,3.4
2019-02-05T04:22:14.674Z,3.4
2019-02-05T04:23:04.452Z,3.4
2019-02-05T04:23:55.514Z,3.4
2019-02-05T04:24:44.838Z,3.4
2019-02-05T04:25:35.032Z,3.4
2019-02-05T04:26:24.690Z,3.4
2019-02-05T04:27:15.008Z,3.4
2019-02-05T04:28:05.081Z,3.4
2019-02-05T04:28:55.149Z,3.4
2019-02-05T04:29:45.193Z,3.4
2019-02-05T04:30:35.250Z,3.4
2019-02-05T04:31:25.311Z,3.4
2019-02-05T04:32:15.374Z,3.4
2019-02-05T04:33:06.226Z,3.4
2019-02-05T04:33:55.229Z,3.4
2019-02-05T04:34:45.540Z,3.4
2019-02-05T04:35:35.605Z,3.4
2019-02-05T04:36:25.660Z,3.4
2019-02-05T04:37:15.725Z,3.4
2019-02-05T04:38:05.508Z,3.4
2019-02-05T04:38:55.707Z,3.3
2019-02-05T04:39:45.895Z,3.4
2019-02-05T04:40:35.972Z,3.4
2019-02-05T04:41:26.002Z,3.4
2019-02-05T04:42:16.519Z,3.3
2019-02-05T04:43:05.867Z,3.3
2019-02-05T04:43:56.180Z,3.3
2019-02-05T04:44:46.242Z,3.4
2019-02-05T04:45:36.302Z,3.3
2019-02-05T04:46:26.477Z,3.3
2019-02-05T04:47:16.414Z,3.3
2019-02-05T04:48:06.707Z,3.3
2019-02-05T04:48:56.535Z,3.3
2019-02-05T04:49:46.585Z,3.3
2019-02-05T04:50:36.653Z,3.3
2019-02-05T04:51:26.754Z,3.3
2019-02-05T04:52:16.767Z,3.3
2019-02-05T04:53:06.848Z,3.3
2019-02-05T04:53:56.895Z,3.3
2019-02-05T04:54:46.957Z,3.3
2019-02-05T04:55:36.734Z,3.3
2019-02-05T04:56:27.161Z,3.3
2019-02-05T04:57:17.689Z,3.3
2019-02-05T04:58:07.196Z,3.3
2019-02-05T04:58:57.229Z,3.3
2019-02-05T04:59:47.300Z,3.3
2019-02-05T05:00:37.361Z,3.3
2019-02-05T05:01:27.459Z,3.3
2019-02-05T05:02:17.591Z,3.3
2019-02-05T05:03:07.524Z,3.3
2019-02-05T05:03:57.804Z,3.3
2019-02-05T05:04:47.647Z,3.3
2019-02-05T05:05:37.738Z,3.3
2019-02-05T05:06:28.350Z,3.3
2019-02-05T05:07:17.808Z,3.3
2019-02-05T05:08:07.878Z,3.3
2019-02-05T05:08:58.458Z,3.3
2019-02-05T05:09:47.988Z,3.2
2019-02-05T05:10:38.048Z,3.3
2019-02-05T05:11:28.103Z,3.3
2019-02-05T05:12:18.774Z,3.3
2019-02-05T05:13:08.225Z,3.2
2019-02-05T05:13:58.298Z,3.3
2019-02-05T05:14:48.326Z,3.2
2019-02-05T05:15:38.389Z,3.2
2019-02-05T05:16:28.455Z,3.2
2019-02-05T05:17:18.537Z,3.2
2019-02-05T05:18:08.575Z,3.2
2019-02-05T05:18:59.124Z,3.2
2019-02-05T05:19:48.697Z,3.2
2019-02-05T05:20:38.737Z,3.2
2019-02-05T05:21:29.285Z,3.2
2019-02-05T05:22:18.875Z,3.2
2019-02-05T05:23:08.930Z,3.2
2019-02-05T05:23:59.472Z,3.2
2019-02-05T05:24:49.044Z,3.2
2019-02-05T05:25:39.602Z,3.2
2019-02-05T05:26:29.650Z,3.2
2019-02-05T05:27:20.094Z,3.2
2019-02-05T05:28:11.621Z,3.1
2019-02-05T05:28:59.344Z,3.2
2019-02-05T05:29:49.875Z,3.2
2019-02-05T05:30:39.428Z,3.2
2019-02-05T05:31:30.006Z,3.2
2019-02-05T05:32:19.777Z,3.2
2019-02-05T05:33:10.109Z,3.2
2019-02-05T05:34:00.156Z,3.2
2019-02-05T05:34:50.229Z,3.2
2019-02-05T05:35:45.468Z,3.1
2019-02-05T05:36:31.167Z,3.1
2019-02-05T05:37:20.416Z,3.2
2019-02-05T05:38:10.442Z,3.1
2019-02-05T05:39:00.519Z,3.1
2019-02-05T05:39:50.308Z,3.1
2019-02-05T05:40:40.701Z,3.1
2019-02-05T05:41:30.706Z,3.1
2019-02-05T05:42:20.397Z,3.1
2019-02-05T05:43:10.303Z,3.1
2019-02-05T05:44:00.863Z,3.1
2019-02-05T05:44:50.677Z,3.1
2019-02-05T05:45:41.401Z,3.1
2019-02-05T05:46:30.761Z,3.1
2019-02-05T05:47:21.090Z,3.1
2019-02-05T05:48:11.166Z,3.1
2019-02-05T05:49:01.220Z,3.1
2019-02-05T05:49:51.266Z,3.1
2019-02-05T05:50:41.335Z,3.1
2019-02-05T05:51:31.992Z,3.1
2019-02-05T05:52:21.434Z,3.1
2019-02-05T05:53:11.507Z,3.1
2019-02-05T05:54:01.278Z,3.1
2019-02-05T05:54:51.629Z,3.1
2019-02-05T05:55:41.682Z,3.1
2019-02-05T05:56:30.903Z,3.1
2019-02-05T05:57:22.226Z,3.1
2019-02-05T05:58:24.671Z,3.1
2019-02-05T05:59:01.634Z,3.1
2019-02-05T05:59:51.977Z,3.1
2019-02-05T06:00:42.265Z,3.1
2019-02-05T06:01:32.072Z,3.1
2019-02-05T06:02:21.857Z,3.1
2019-02-05T06:03:12.349Z,3.1
2019-02-05T06:04:02.247Z,3.1
2019-02-05T06:06:17.863Z,3.1
2019-02-05T06:07:07.904Z,3.1
2019-02-05T06:07:58.285Z,3.1
2019-02-05T06:08:48.282Z,3.1
2019-02-05T06:09:38.389Z,3.1
2019-02-05T06:10:28.133Z,3.1
2019-02-05T06:11:18.449Z,3.1
2019-02-05T06:12:08.242Z,3.1
2019-02-05T06:12:58.577Z,3.1
2019-02-05T06:13:48.619Z,3.1
2019-02-05T06:14:39.017Z,3.1
2019-02-05T06:15:28.787Z,3.1
2019-02-05T06:16:18.527Z,3.1
2019-02-05T06:17:08.599Z,3.1
2019-02-05T06:17:58.755Z,3.1
2019-02-05T06:18:48.984Z,3.1
2019-02-05T06:19:38.765Z,3.1
2019-02-05T06:20:28.838Z,3.1
2019-02-05T06:21:19.171Z,3.1
2019-02-05T06:22:08.966Z,3.2
2019-02-05T06:22:59.267Z,3.1
2019-02-05T06:23:50.094Z,3.1
2019-02-05T06:24:39.404Z,3.2
2019-02-05T06:25:29.169Z,3.1
2019-02-05T06:26:21.993Z,3.1
2019-02-05T06:27:09.562Z,3.2
2019-02-05T06:27:59.618Z,3.2
2019-02-05T06:28:49.748Z,3.2
2019-02-05T06:29:40.495Z,3.2
2019-02-05T06:30:29.791Z,3.2
2019-02-05T06:31:19.843Z,3.2
2019-02-05T06:32:09.915Z,3.2
2019-02-05T06:32:59.426Z,3.2
2019-02-05T06:33:50.024Z,3.2
2019-02-05T06:34:39.797Z,3.2
2019-02-05T06:35:29.575Z,3.3
2019-02-05T06:36:20.203Z,3.2
2019-02-05T06:37:10.256Z,3.3
2019-02-05T06:38:00.326Z,3.3
2019-02-05T06:38:51.341Z,3.3
2019-02-05T06:39:40.563Z,3.3
2019-02-05T06:40:30.525Z,3.3
2019-02-05T06:41:20.276Z,3.3
2019-02-05T06:42:10.600Z,3.3
2019-02-05T06:43:00.670Z,3.3
2019-02-05T06:43:50.429Z,3.3
2019-02-05T06:44:41.496Z,3.3
2019-02-05T06:45:30.827Z,3.3
2019-02-05T06:46:20.887Z,3.3
2019-02-05T06:47:10.677Z,3.3
2019-02-05T06:48:01.004Z,3.4
2019-02-05T06:48:51.065Z,3.4
2019-02-05T06:49:41.127Z,3.4
2019-02-05T06:50:31.172Z,3.4
2019-02-05T06:51:21.237Z,3.4
2019-02-05T06:52:11.301Z,3.4
2019-02-05T06:53:01.082Z,3.4
2019-02-05T06:53:52.352Z,3.4
2019-02-05T06:54:41.190Z,3.4
2019-02-05T06:55:31.296Z,3.4
2019-02-05T06:56:21.301Z,3.4
2019-02-05T06:57:11.651Z,3.5
2019-02-05T06:58:01.711Z,3.5
2019-02-05T06:58:51.466Z,3.5
2019-02-05T06:59:42.457Z,3.6
2019-02-05T07:00:31.586Z,3.6
2019-02-05T07:01:21.976Z,3.6
2019-02-05T07:02:11.753Z,3.6
2019-02-05T07:03:02.044Z,3.6
2019-02-05T07:03:52.111Z,3.6
2019-02-05T07:06:17.773Z,3.7
2019-02-05T07:07:07.852Z,3.8
2019-02-05T07:07:58.178Z,3.8
2019-02-05T07:08:48.242Z,3.8
2019-02-05T07:09:38.278Z,3.8
2019-02-05T07:10:28.370Z,3.8
2019-02-05T07:11:18.429Z,3.9
2019-02-05T07:12:08.468Z,3.9
2019-02-05T07:12:58.527Z,3.9
2019-02-05T07:13:48.603Z,3.9
2019-02-05T07:14:39.573Z,3.9
2019-02-05T07:15:28.714Z,4
2019-02-05T07:16:18.473Z,4
2019-02-05T07:17:08.525Z,4.1
2019-02-05T07:17:58.880Z,4.1
2019-02-05T07:18:48.653Z,4.1
2019-02-05T07:19:38.982Z,4.1
2019-02-05T07:20:29.652Z,4.1
2019-02-05T07:21:18.815Z,4.1
2019-02-05T07:22:09.172Z,4.1
2019-02-05T07:22:59.230Z,4.2
2019-02-05T07:23:49.280Z,4.2
2019-02-05T07:24:39.055Z,4.2
2019-02-05T07:25:29.117Z,4.2
2019-02-05T07:26:19.448Z,4.3
2019-02-05T07:27:09.532Z,4.3
2019-02-05T07:27:59.569Z,4.3
2019-02-05T07:29:03.165Z,4.3
2019-02-05T07:29:40.629Z,4.3
2019-02-05T07:30:29.744Z,4.3
2019-02-05T07:31:19.529Z,4.3
2019-02-05T07:32:09.878Z,4.4
2019-02-05T07:32:59.644Z,4.4
2019-02-05T07:33:49.766Z,4.4
2019-02-05T07:34:40.075Z,4.4
2019-02-05T07:35:30.705Z,4.4
2019-02-05T07:36:20.187Z,4.4
2019-02-05T07:37:10.229Z,4.5
2019-02-05T07:38:00.322Z,4.6
2019-02-05T07:38:50.354Z,4.6
2019-02-05T07:39:40.121Z,4.6
2019-02-05T07:40:30.222Z,4.6
2019-02-05T07:41:21.399Z,4.6
2019-02-05T07:42:10.005Z,4.7
2019-02-05T07:43:00.356Z,4.7
2019-02-05T07:43:50.721Z,4.7
2019-02-05T07:44:41.683Z,4.8
2019-02-05T07:45:30.598Z,4.8
2019-02-05T07:46:20.581Z,4.9
2019-02-05T07:47:11.559Z,4.9
2019-02-05T07:48:00.686Z,4.9
2019-02-05T07:48:50.761Z,5
2019-02-05T07:49:41.096Z,5.1
2019-02-05T07:50:30.892Z,5.1
2019-02-05T07:51:21.203Z,5.1
2019-02-05T07:52:11.273Z,5.2
2019-02-05T07:53:01.556Z,5.3
2019-02-05T07:53:51.107Z,5.3
2019-02-05T07:54:41.433Z,5.4
2019-02-05T07:55:31.218Z,5.4
2019-02-05T07:56:21.591Z,5.4
2019-02-05T07:57:11.330Z,5.5
2019-02-05T07:58:01.409Z,5.6
2019-02-05T07:58:51.728Z,5.6
2019-02-05T07:59:41.881Z,5.7
2019-02-05T08:00:31.907Z,5.7
2019-02-05T08:01:21.921Z,5.8
2019-02-05T08:02:12.533Z,5.8
2019-02-05T08:03:02.038Z,5.9
2019-02-05T08:03:52.182Z,5.9
2019-02-05T08:04:42.127Z,6
2019-02-05T08:05:31.992Z,6.1
2019-02-05T08:06:22.262Z,6.1
2019-02-05T08:07:12.317Z,6.1
2019-02-05T08:08:17.358Z,6.3
2019-02-05T08:08:52.149Z,6.3
2019-02-05T08:09:42.494Z,6.4
2019-02-05T08:10:32.278Z,6.4
2019-02-05T08:11:22.747Z,6.5
2019-02-05T08:12:12.434Z,6.6
2019-02-05T08:13:02.732Z,6.7
2019-02-05T08:13:53.397Z,6.8
2019-02-05T08:14:42.574Z,6.9
2019-02-05T08:15:32.653Z,6.9
2019-02-05T08:16:22.691Z,7.1
2019-02-05T08:17:13.044Z,7.2
2019-02-05T08:18:02.804Z,7.3
2019-02-05T08:18:52.829Z,7.4
2019-02-05T08:19:43.604Z,7.4
2019-02-05T08:20:33.351Z,7.6
2019-02-05T08:21:23.039Z,7.6
2019-02-05T08:22:13.366Z,7.8
2019-02-05T08:23:03.444Z,7.8
2019-02-05T08:23:53.469Z,7.9
2019-02-05T08:24:43.516Z,8.1
2019-02-05T08:25:34.598Z,8.1
2019-02-05T08:26:23.640Z,8.3
2019-02-05T08:27:13.446Z,8.4
2019-02-05T08:28:03.826Z,8.5
2019-02-05T08:28:53.819Z,8.6
2019-02-05T08:29:43.881Z,8.8
2019-02-05T08:30:33.938Z,8.9
2019-02-05T08:31:24.295Z,9
2019-02-05T08:32:14.065Z,9.1
2019-02-05T08:33:03.859Z,9.2
2019-02-05T08:33:54.171Z,9.3
2019-02-05T08:34:44.343Z,9.4
2019-02-05T08:35:33.990Z,9.5
2019-02-05T08:36:24.075Z,9.6
2019-02-05T08:37:14.516Z,9.7
2019-02-05T08:38:04.503Z,9.8
2019-02-05T08:38:54.515Z,9.9
2019-02-05T08:39:44.295Z,10
2019-02-05T08:40:35.622Z,10.1
2019-02-05T08:41:24.682Z,10.3
2019-02-05T08:42:14.809Z,10.3
2019-02-05T08:43:04.525Z,10.5
2019-02-05T08:43:54.854Z,10.6
2019-02-05T08:44:44.933Z,10.8
2019-02-05T08:45:34.712Z,10.9
2019-02-05T08:46:25.369Z,11.1
2019-02-05T08:47:15.117Z,11.3
2019-02-05T08:48:05.167Z,11.4
2019-02-05T08:48:54.948Z,11.6
2019-02-05T08:49:45.054Z,11.8
2019-02-05T08:50:35.101Z,12
2019-02-05T08:51:25.099Z,12.2
2019-02-05T08:52:15.959Z,12.4
2019-02-05T08:53:05.247Z,12.5
2019-02-05T08:53:55.565Z,12.7
2019-02-05T08:54:45.621Z,12.8
2019-02-05T08:55:35.432Z,13
2019-02-05T08:56:25.734Z,13.1
2019-02-05T08:57:15.799Z,13.3
2019-02-05T08:58:05.708Z,13.4
2019-02-05T08:58:55.914Z,13.7
2019-02-05T08:59:45.978Z,13.8
2019-02-05T09:00:36.031Z,14.1
2019-02-05T09:01:26.926Z,14.3
2019-02-05T09:02:15.886Z,14.6
2019-02-05T09:03:06.203Z,14.8
2019-02-05T09:03:56.006Z,15.1
2019-02-05T09:04:46.051Z,15.4
2019-02-05T09:05:36.106Z,15.6
2019-02-05T09:06:26.427Z,15.8
2019-02-05T09:07:16.953Z,16.1
2019-02-05T09:08:06.567Z,16.3
2019-02-05T09:08:56.616Z,16.5
2019-02-05T09:09:46.685Z,16.7
2019-02-05T09:10:36.458Z,16.9
2019-02-05T09:11:26.788Z,17.1
2019-02-05T09:12:19.627Z,17.3
2019-02-05T09:13:07.146Z,17.5
2019-02-05T09:13:56.985Z,17.7
2019-02-05T09:14:47.003Z,17.9
2019-02-05T09:15:37.080Z,18.1
2019-02-05T09:16:27.440Z,18.3
2019-02-05T09:17:16.638Z,18.5
2019-02-05T09:18:57.425Z,18.9
2019-02-05T09:19:47.108Z,19.1
2019-02-05T09:20:37.148Z,19.3
2019-02-05T09:21:27.495Z,19.4
2019-02-05T09:22:18.124Z,19.7
2019-02-05T09:23:07.579Z,19.9
2019-02-05T09:23:57.369Z,20.1
2019-02-05T09:24:47.442Z,20.3
2019-02-05T09:25:37.492Z,20.6
2019-02-05T09:26:27.545Z,20.8
2019-02-05T09:27:17.882Z,21
2019-02-05T09:28:08.552Z,21.3
2019-02-05T09:28:58.014Z,21.5
2019-02-05T09:29:48.054Z,21.7
2019-02-05T09:30:38.134Z,21.9
2019-02-05T09:31:28.174Z,22.1
2019-02-05T09:32:18.227Z,22.3
2019-02-05T09:33:08.287Z,22.5
2019-02-05T09:33:58.082Z,22.7
2019-02-05T09:34:48.519Z,22.9
2019-02-05T09:35:37.904Z,23
2019-02-05T09:36:28.344Z,23.2
2019-02-05T09:37:19.054Z,23.4
2019-02-05T09:38:08.652Z,23.6
2019-02-05T09:39:48.759Z,24.1
2019-02-05T09:40:38.532Z,24.3
2019-02-05T09:41:28.671Z,24.6
2019-02-05T09:42:18.706Z,24.8
2019-02-05T09:43:09.756Z,25.1
2019-02-05T09:43:59.045Z,25.3
2019-02-05T09:44:49.123Z,25.5
2019-02-05T09:45:39.171Z,25.7
2019-02-05T09:46:29.229Z,25.9
2019-02-05T09:47:19.333Z,26
2019-02-05T09:48:09.331Z,26.1
2019-02-05T09:48:59.271Z,26.3
2019-02-05T09:49:49.456Z,26.4
2019-02-05T09:50:46.451Z,26.4
2019-02-05T09:51:29.561Z,26.5
2019-02-05T09:52:19.779Z,26.6
2019-02-05T09:53:09.692Z,26.6
2019-02-05T09:53:59.747Z,26.7
2019-02-05T09:54:49.510Z,26.7
2019-02-05T09:55:39.603Z,26.7
2019-02-05T09:56:29.647Z,26.8
2019-02-05T09:57:19.995Z,26.8
2019-02-05T09:58:10.652Z,26.8
2019-02-05T09:58:59.820Z,26.8
2019-02-05T09:59:49.876Z,26.8
2019-02-05T10:00:40.301Z,26.8
2019-02-05T10:01:30.270Z,26.9
2019-02-05T10:02:20.323Z,26.9
2019-02-05T10:03:10.513Z,27
2019-02-05T10:04:00.762Z,27.1
2019-02-05T10:04:50.486Z,27.2
2019-02-05T10:07:32.582Z,27.7
2019-02-05T10:08:08.490Z,28.2
2019-02-05T10:08:58.304Z,28.5
2019-02-05T10:10:03.027Z,29.4
2019-02-05T10:10:39.095Z,30.5
2019-02-05T10:11:28.247Z,31.4
2019-02-05T10:12:27.329Z,33.1
2019-02-05T10:14:16.657Z,33.9
2019-02-05T10:15:06.011Z,34.1
2019-02-05T10:16:02.379Z,34.4
2019-02-05T10:16:52.411Z,34.4
2019-02-05T10:18:45.609Z,35
2019-02-05T10:19:33.171Z,35.1
2019-02-05T10:20:23.787Z,35.6
2019-02-05T10:21:12.954Z,35.9
2019-02-05T10:22:25.297Z,37.1
2019-02-05T10:23:28.996Z,37.9
2019-02-05T10:24:04.897Z,38.6
2019-02-05T10:24:54.473Z,39.8
2019-02-05T10:26:06.143Z,40.6
2019-02-05T10:26:49.987Z,40.9
2019-02-05T10:27:39.550Z,41.1
2019-02-05T10:28:29.868Z,41.4
2019-02-05T10:29:19.937Z,41.8
2019-02-05T10:30:09.433Z,42.3
2019-02-05T10:30:59.791Z,43
2019-02-05T10:31:50.102Z,43.9
2019-02-05T10:32:40.165Z,15.9
2019-02-05T10:33:30.229Z,21.3
2019-02-05T10:34:20.280Z,42.5
2019-02-05T10:35:11.062Z,44.9
2019-02-05T10:36:02.955Z,48.7
2019-02-05T10:36:50.192Z,50.6
2019-02-05T10:37:54.870Z,51.1
2019-02-05T10:38:30.302Z,49.9
2019-02-05T10:39:20.750Z,49.2
2019-02-05T10:40:10.695Z,48.6
2019-02-05T10:41:01.350Z,48.1
2019-02-05T10:41:50.540Z,47.8
2019-02-05T10:42:40.604Z,47.6
2019-02-05T10:43:30.975Z,47.4
2019-02-05T10:44:20.744Z,47.3
2019-02-05T10:45:11.041Z,47.2
2019-02-05T10:46:00.840Z,49.4
2019-02-05T10:46:50.900Z,49.7
2019-02-05T10:47:41.318Z,51.1
2019-02-05T10:48:31.280Z,52.6
2019-02-05T10:49:21.352Z,52.3
2019-02-05T10:50:12.342Z,55.6
2019-02-05T10:51:00.940Z,57.4
2019-02-05T10:52:41.565Z,57.3
2019-02-05T10:53:31.640Z,56.8
2019-02-05T10:54:21.702Z,56.6
2019-02-05T10:55:11.748Z,56.7
2019-02-05T10:56:02.554Z,56.9
2019-02-05T10:56:51.884Z,57.2
2019-02-05T10:57:41.909Z,57.6
2019-02-05T10:58:31.973Z,57.8
2019-02-05T10:59:21.753Z,58
2019-02-05T11:00:12.139Z,58.1
2019-02-05T11:01:02.176Z,58.3
2019-02-05T11:01:52.546Z,58.3
2019-02-05T11:02:42.831Z,58.4
2019-02-05T11:04:22.398Z,58.7
2019-02-05T11:05:12.471Z,58.8
2019-02-05T11:06:02.221Z,58.9
2019-02-05T11:06:52.576Z,59
2019-02-05T11:07:42.635Z,59.1
2019-02-05T11:08:32.693Z,59.2
2019-02-05T11:09:22.731Z,59.4
2019-02-05T11:10:12.818Z,59.4
2019-02-05T11:11:03.626Z,59.6
2019-02-05T11:11:52.938Z,59.7
2019-02-05T11:12:42.980Z,59.8
2019-02-05T11:13:33.042Z,59.9
2019-02-05T11:14:22.845Z,59.9
2019-02-05T11:15:12.870Z,60.1
2019-02-05T11:16:03.459Z,60.1
2019-02-05T11:16:53.607Z,60.1
2019-02-05T11:17:43.058Z,60.2
2019-02-05T11:18:33.406Z,60.3
2019-02-05T11:19:23.460Z,60.3
2019-02-05T11:20:13.532Z,60.4
2019-02-05T11:21:05.700Z,60.4
2019-02-05T11:21:53.347Z,60.5
2019-02-05T11:22:43.415Z,60.5
2019-02-05T11:23:33.760Z,60.6
2019-02-05T11:24:23.806Z,60.6
2019-02-05T11:25:13.966Z,60.7
2019-02-05T11:26:04.258Z,60.8
2019-02-05T11:26:54.092Z,60.8
2019-02-05T11:27:47.411Z,60.9
2019-02-05T11:28:34.094Z,60.9
2019-02-05T11:29:23.887Z,60.9
2019-02-05T11:30:21.892Z,61
2019-02-05T11:31:04.016Z,61.1
2019-02-05T11:31:54.824Z,61.1
2019-02-05T11:32:44.126Z,61.1
2019-02-05T11:33:34.484Z,61.1
2019-02-05T11:34:24.524Z,61.3
2019-02-05T11:35:14.314Z,61.3
2019-02-05T11:36:04.351Z,61.4
2019-02-05T11:36:54.939Z,61.4
2019-02-05T11:37:45.014Z,61.4
2019-02-05T11:38:34.558Z,61.4
2019-02-05T11:39:24.629Z,61.5